KAKH/AKH METAR and TAF weather

Enter ICAO airport designator
Station Type Date Time Source
KAKH METAR 2019/07/18 10:54 UTC NOAA

KAKH 181054Z AUTO 22003KT 8SM CLR 23/21 A3002 RMK AO2 SLP157 T02330211


Station Type Date Time Source
KAKH Decoded METAR 2019/07/18 10:54 UTC NOAA

GASTONIA MUNICIPAL AIRPORT, NC, United States (KAKH) 35-12N 81-09W 243M
Jul 18, 2019 - 06:54 AM EDT / 2019.07.18 1054 UTC
Wind: from the SW (220 degrees) at 3 MPH (3 KT):0
Visibility: 8 mile(s):0
Sky conditions: clear
Temperature: 73.9 F (23.3 C)
Dew Point: 70.0 F (21.1 C)
Relative Humidity: 87%
Pressure (altimeter): 30.02 in. Hg (1016 hPa)
ob: KAKH 181054Z AUTO 22003KT 8SM CLR 23/21 A3002 RMK AO2 SLP157 T02330211
cycle: 11

Station Type Date Time Source
KAKH TAF UTC NOAA

Error!

Example: see airport list